sensor_id;sensor_type;location;lat;lon;timestamp;P1;durP1;ratioP1;P2;durP2;ratioP2
34960;SDS011;30789;52.030;7.110;2024-03-08T00:01:15;23.50;;;15.40;;
34960;SDS011;30789;52.030;7.110;2024-03-08T00:03:44;25.50;;;15.60;;
34960;SDS011;30789;52.030;7.110;2024-03-08T00:06:11;25.00;;;15.80;;
34960;SDS011;30789;52.030;7.110;2024-03-08T00:08:37;25.38;;;16.23;;
34960;SDS011;30789;52.030;7.110;2024-03-08T00:11:04;28.45;;;16.35;;
34960;SDS011;30789;52.030;7.110;2024-03-08T00:13:30;26.02;;;16.25;;
34960;SDS011;30789;52.030;7.110;2024-03-08T00:15:57;25.45;;;15.65;;
34960;SDS011;30789;52.030;7.110;2024-03-08T00:18:24;25.02;;;16.40;;
34960;SDS011;30789;52.030;7.110;2024-03-08T00:20:52;24.98;;;15.80;;
34960;SDS011;30789;52.030;7.110;2024-03-08T00:23:18;25.73;;;16.73;;
34960;SDS011;30789;52.030;7.110;2024-03-08T00:25:45;25.65;;;16.95;;
34960;SDS011;30789;52.030;7.110;2024-03-08T00:28:11;23.38;;;16.13;;
34960;SDS011;30789;52.030;7.110;2024-03-08T00:30:40;26.60;;;16.38;;
34960;SDS011;30789;52.030;7.110;2024-03-08T00:33:07;26.92;;;16.65;;
34960;SDS011;30789;52.030;7.110;2024-03-08T00:35:34;25.70;;;16.95;;
34960;SDS011;30789;52.030;7.110;2024-03-08T00:38:02;24.63;;;17.38;;
34960;SDS011;30789;52.030;7.110;2024-03-08T00:40:29;29.85;;;17.67;;
34960;SDS011;30789;52.030;7.110;2024-03-08T00:42:56;26.27;;;17.23;;
34960;SDS011;30789;52.030;7.110;2024-03-08T00:45:22;24.35;;;16.50;;
34960;SDS011;30789;52.030;7.110;2024-03-08T00:47:49;27.52;;;18.30;;
34960;SDS011;30789;52.030;7.110;2024-03-08T00:50:16;24.63;;;16.63;;
34960;SDS011;30789;52.030;7.110;2024-03-08T00:52:43;25.15;;;16.92;;
34960;SDS011;30789;52.030;7.110;2024-03-08T00:55:11;27.80;;;17.75;;
34960;SDS011;30789;52.030;7.110;2024-03-08T00:57:37;27.08;;;17.52;;
34960;SDS011;30789;52.030;7.110;2024-03-08T01:00:05;25.65;;;17.95;;
34960;SDS011;30789;52.030;7.110;2024-03-08T01:02:36;32.60;;;19.73;;
34960;SDS011;30789;52.030;7.110;2024-03-08T01:05:03;27.55;;;18.60;;
34960;SDS011;30789;52.030;7.110;2024-03-08T01:07:32;27.92;;;18.33;;
34960;SDS011;30789;52.030;7.110;2024-03-08T01:09:59;26.23;;;17.95;;
34960;SDS011;30789;52.030;7.110;2024-03-08T01:12:28;27.73;;;17.95;;
34960;SDS011;30789;52.030;7.110;2024-03-08T01:14:55;25.65;;;18.38;;
34960;SDS011;30789;52.030;7.110;2024-03-08T01:17:22;27.80;;;18.23;;
34960;SDS011;30789;52.030;7.110;2024-03-08T01:19:49;31.52;;;19.08;;
34960;SDS011;30789;52.030;7.110;2024-03-08T01:22:15;27.50;;;18.95;;
34960;SDS011;30789;52.030;7.110;2024-03-08T01:24:42;29.60;;;19.00;;
34960;SDS011;30789;52.030;7.110;2024-03-08T01:27:09;29.17;;;19.00;;
34960;SDS011;30789;52.030;7.110;2024-03-08T01:29:37;27.83;;;18.90;;
34960;SDS011;30789;52.030;7.110;2024-03-08T01:32:03;29.90;;;20.02;;
34960;SDS011;30789;52.030;7.110;2024-03-08T01:34:31;28.45;;;19.70;;
34960;SDS011;30789;52.030;7.110;2024-03-08T01:36:58;29.30;;;18.77;;
34960;SDS011;30789;52.030;7.110;2024-03-08T01:39:25;27.13;;;19.00;;
34960;SDS011;30789;52.030;7.110;2024-03-08T01:41:52;29.83;;;18.80;;
34960;SDS011;30789;52.030;7.110;2024-03-08T01:44:20;29.05;;;19.38;;
34960;SDS011;30789;52.030;7.110;2024-03-08T01:46:48;31.27;;;19.33;;
34960;SDS011;30789;52.030;7.110;2024-03-08T01:49:17;28.55;;;19.77;;
34960;SDS011;30789;52.030;7.110;2024-03-08T01:51:45;34.13;;;20.00;;
34960;SDS011;30789;52.030;7.110;2024-03-08T01:54:13;31.55;;;17.95;;
34960;SDS011;30789;52.030;7.110;2024-03-08T01:56:41;28.95;;;18.88;;
34960;SDS011;30789;52.030;7.110;2024-03-08T01:59:08;30.23;;;19.33;;
34960;SDS011;30789;52.030;7.110;2024-03-08T02:01:35;28.33;;;19.17;;
34960;SDS011;30789;52.030;7.110;2024-03-08T02:04:04;35.60;;;20.30;;
34960;SDS011;30789;52.030;7.110;2024-03-08T02:06:32;36.63;;;20.20;;
34960;SDS011;30789;52.030;7.110;2024-03-08T02:08:59;28.95;;;19.20;;
34960;SDS011;30789;52.030;7.110;2024-03-08T02:11:30;32.08;;;20.33;;
34960;SDS011;30789;52.030;7.110;2024-03-08T02:13:57;27.95;;;18.80;;
34960;SDS011;30789;52.030;7.110;2024-03-08T02:16:24;29.58;;;19.05;;
34960;SDS011;30789;52.030;7.110;2024-03-08T02:18:51;30.55;;;19.35;;
34960;SDS011;30789;52.030;7.110;2024-03-08T02:21:19;30.55;;;19.25;;
34960;SDS011;30789;52.030;7.110;2024-03-08T02:23:46;30.98;;;20.13;;
34960;SDS011;30789;52.030;7.110;2024-03-08T02:26:13;36.40;;;20.27;;
34960;SDS011;30789;52.030;7.110;2024-03-08T02:28:39;31.48;;;19.65;;
34960;SDS011;30789;52.030;7.110;2024-03-08T02:31:08;31.05;;;20.92;;
34960;SDS011;30789;52.030;7.110;2024-03-08T02:33:34;32.33;;;20.17;;
34960;SDS011;30789;52.030;7.110;2024-03-08T02:36:01;29.08;;;19.73;;
34960;SDS011;30789;52.030;7.110;2024-03-08T02:38:30;32.38;;;19.95;;
34960;SDS011;30789;52.030;7.110;2024-03-08T02:40:56;32.13;;;21.20;;
34960;SDS011;30789;52.030;7.110;2024-03-08T02:43:23;34.85;;;19.83;;
34960;SDS011;30789;52.030;7.110;2024-03-08T02:45:50;34.00;;;21.10;;
34960;SDS011;30789;52.030;7.110;2024-03-08T02:48:18;29.10;;;19.52;;
34960;SDS011;30789;52.030;7.110;2024-03-08T02:50:46;27.65;;;18.38;;
34960;SDS011;30789;52.030;7.110;2024-03-08T02:53:12;33.58;;;20.52;;
34960;SDS011;30789;52.030;7.110;2024-03-08T02:55:41;29.75;;;20.17;;
34960;SDS011;30789;52.030;7.110;2024-03-08T02:58:08;32.75;;;20.50;;
34960;SDS011;30789;52.030;7.110;2024-03-08T03:00:35;32.97;;;21.73;;
34960;SDS011;30789;52.030;7.110;2024-03-08T03:03:02;32.58;;;21.42;;
34960;SDS011;30789;52.030;7.110;2024-03-08T03:05:29;30.42;;;20.42;;
34960;SDS011;30789;52.030;7.110;2024-03-08T03:07:56;34.03;;;21.42;;
34960;SDS011;30789;52.030;7.110;2024-03-08T03:10:23;30.75;;;20.58;;
34960;SDS011;30789;52.030;7.110;2024-03-08T03:12:52;34.53;;;21.98;;
34960;SDS011;30789;52.030;7.110;2024-03-08T03:15:19;33.40;;;22.00;;
34960;SDS011;30789;52.030;7.110;2024-03-08T03:17:45;35.65;;;22.55;;
34960;SDS011;30789;52.030;7.110;2024-03-08T03:20:13;34.47;;;21.52;;
34960;SDS011;30789;52.030;7.110;2024-03-08T03:22:40;30.27;;;20.17;;
34960;SDS011;30789;52.030;7.110;2024-03-08T03:25:12;35.53;;;22.15;;
34960;SDS011;30789;52.030;7.110;2024-03-08T03:27:39;34.35;;;21.20;;
34960;SDS011;30789;52.030;7.110;2024-03-08T03:30:09;38.10;;;22.13;;
34960;SDS011;30789;52.030;7.110;2024-03-08T03:32:47;31.20;;;21.05;;
34960;SDS011;30789;52.030;7.110;2024-03-08T03:35:14;33.40;;;22.35;;
34960;SDS011;30789;52.030;7.110;2024-03-08T03:37:41;31.85;;;21.73;;
34960;SDS011;30789;52.030;7.110;2024-03-08T03:40:11;33.33;;;21.77;;
34960;SDS011;30789;52.030;7.110;2024-03-08T03:42:39;36.42;;;22.55;;
34960;SDS011;30789;52.030;7.110;2024-03-08T03:45:06;34.45;;;22.38;;
34960;SDS011;30789;52.030;7.110;2024-03-08T03:47:35;40.35;;;23.27;;
34960;SDS011;30789;52.030;7.110;2024-03-08T03:50:03;32.45;;;21.73;;
34960;SDS011;30789;52.030;7.110;2024-03-08T03:52:30;35.97;;;23.10;;
34960;SDS011;30789;52.030;7.110;2024-03-08T03:54:57;33.45;;;21.23;;
34960;SDS011;30789;52.030;7.110;2024-03-08T03:57:24;36.78;;;23.70;;
34960;SDS011;30789;52.030;7.110;2024-03-08T03:59:50;34.75;;;22.35;;
34960;SDS011;30789;52.030;7.110;2024-03-08T04:02:17;34.20;;;23.45;;
34960;SDS011;30789;52.030;7.110;2024-03-08T04:04:46;34.92;;;21.50;;
34960;SDS011;30789;52.030;7.110;2024-03-08T04:07:14;37.63;;;23.55;;
34960;SDS011;30789;52.030;7.110;2024-03-08T04:09:40;37.83;;;23.33;;
34960;SDS011;30789;52.030;7.110;2024-03-08T04:12:07;35.05;;;22.85;;
34960;SDS011;30789;52.030;7.110;2024-03-08T04:14:34;38.00;;;23.50;;
34960;SDS011;30789;52.030;7.110;2024-03-08T04:17:01;31.27;;;20.40;;
34960;SDS011;30789;52.030;7.110;2024-03-08T04:19:28;34.92;;;21.70;;
34960;SDS011;30789;52.030;7.110;2024-03-08T04:21:56;38.92;;;22.40;;
34960;SDS011;30789;52.030;7.110;2024-03-08T04:24:23;34.60;;;21.60;;
34960;SDS011;30789;52.030;7.110;2024-03-08T04:26:50;35.92;;;21.25;;
34960;SDS011;30789;52.030;7.110;2024-03-08T04:29:17;37.72;;;21.95;;
34960;SDS011;30789;52.030;7.110;2024-03-08T04:31:43;37.15;;;22.30;;
34960;SDS011;30789;52.030;7.110;2024-03-08T04:34:10;34.15;;;21.20;;
34960;SDS011;30789;52.030;7.110;2024-03-08T04:36:38;36.70;;;23.50;;
34960;SDS011;30789;52.030;7.110;2024-03-08T04:39:06;36.65;;;22.77;;
34960;SDS011;30789;52.030;7.110;2024-03-08T04:41:37;37.45;;;23.45;;
34960;SDS011;30789;52.030;7.110;2024-03-08T04:44:04;39.58;;;24.48;;
34960;SDS011;30789;52.030;7.110;2024-03-08T04:46:31;38.78;;;24.83;;
34960;SDS011;30789;52.030;7.110;2024-03-08T04:48:57;45.25;;;27.67;;
34960;SDS011;30789;52.030;7.110;2024-03-08T04:51:24;35.92;;;23.13;;
34960;SDS011;30789;52.030;7.110;2024-03-08T04:53:51;38.70;;;23.48;;
34960;SDS011;30789;52.030;7.110;2024-03-08T04:56:19;37.90;;;23.05;;
34960;SDS011;30789;52.030;7.110;2024-03-08T04:58:46;39.15;;;23.17;;
34960;SDS011;30789;52.030;7.110;2024-03-08T05:01:13;35.60;;;23.02;;
34960;SDS011;30789;52.030;7.110;2024-03-08T05:03:39;35.67;;;22.45;;
34960;SDS011;30789;52.030;7.110;2024-03-08T05:06:06;40.58;;;23.33;;
34960;SDS011;30789;52.030;7.110;2024-03-08T05:08:33;35.50;;;23.40;;
34960;SDS011;30789;52.030;7.110;2024-03-08T05:11:00;34.08;;;22.13;;
34960;SDS011;30789;52.030;7.110;2024-03-08T05:13:30;40.42;;;23.83;;
34960;SDS011;30789;52.030;7.110;2024-03-08T05:15:56;40.80;;;23.42;;
34960;SDS011;30789;52.030;7.110;2024-03-08T05:18:23;44.45;;;24.38;;
34960;SDS011;30789;52.030;7.110;2024-03-08T05:20:50;41.63;;;24.13;;
34960;SDS011;30789;52.030;7.110;2024-03-08T05:23:17;40.67;;;24.42;;
34960;SDS011;30789;52.030;7.110;2024-03-08T05:25:44;37.28;;;23.92;;
34960;SDS011;30789;52.030;7.110;2024-03-08T05:28:11;36.60;;;22.67;;
34960;SDS011;30789;52.030;7.110;2024-03-08T05:30:40;40.58;;;23.23;;
34960;SDS011;30789;52.030;7.110;2024-03-08T05:33:06;44.28;;;23.75;;
34960;SDS011;30789;52.030;7.110;2024-03-08T05:35:36;40.78;;;23.35;;
34960;SDS011;30789;52.030;7.110;2024-03-08T05:38:03;44.08;;;24.38;;
34960;SDS011;30789;52.030;7.110;2024-03-08T05:40:30;40.90;;;24.35;;
34960;SDS011;30789;52.030;7.110;2024-03-08T05:42:57;43.33;;;24.38;;
34960;SDS011;30789;52.030;7.110;2024-03-08T05:45:24;38.38;;;24.42;;
34960;SDS011;30789;52.030;7.110;2024-03-08T05:47:52;37.03;;;22.95;;
34960;SDS011;30789;52.030;7.110;2024-03-08T05:50:19;43.80;;;25.15;;
34960;SDS011;30789;52.030;7.110;2024-03-08T05:52:45;40.05;;;24.23;;
34960;SDS011;30789;52.030;7.110;2024-03-08T05:55:13;40.45;;;24.90;;
34960;SDS011;30789;52.030;7.110;2024-03-08T05:57:40;41.92;;;23.88;;
34960;SDS011;30789;52.030;7.110;2024-03-08T06:00:07;39.95;;;23.98;;
34960;SDS011;30789;52.030;7.110;2024-03-08T06:02:36;41.88;;;25.00;;
34960;SDS011;30789;52.030;7.110;2024-03-08T06:05:08;40.92;;;23.80;;
34960;SDS011;30789;52.030;7.110;2024-03-08T06:07:36;43.10;;;25.05;;
34960;SDS011;30789;52.030;7.110;2024-03-08T06:10:05;39.88;;;24.15;;
34960;SDS011;30789;52.030;7.110;2024-03-08T06:12:35;41.20;;;24.38;;
34960;SDS011;30789;52.030;7.110;2024-03-08T06:15:05;40.50;;;23.63;;
34960;SDS011;30789;52.030;7.110;2024-03-08T06:17:32;42.42;;;23.90;;
34960;SDS011;30789;52.030;7.110;2024-03-08T06:19:59;40.28;;;25.02;;
34960;SDS011;30789;52.030;7.110;2024-03-08T06:22:27;42.75;;;24.80;;
34960;SDS011;30789;52.030;7.110;2024-03-08T06:24:55;40.33;;;24.73;;
34960;SDS011;30789;52.030;7.110;2024-03-08T06:27:22;40.85;;;24.40;;
34960;SDS011;30789;52.030;7.110;2024-03-08T06:29:49;39.97;;;23.95;;
34960;SDS011;30789;52.030;7.110;2024-03-08T06:32:15;46.08;;;24.05;;
34960;SDS011;30789;52.030;7.110;2024-03-08T06:34:42;40.90;;;25.02;;
34960;SDS011;30789;52.030;7.110;2024-03-08T06:37:26;45.17;;;25.77;;
34960;SDS011;30789;52.030;7.110;2024-03-08T06:39:57;39.50;;;25.70;;
34960;SDS011;30789;52.030;7.110;2024-03-08T06:42:26;42.15;;;24.05;;
34960;SDS011;30789;52.030;7.110;2024-03-08T06:44:52;44.17;;;24.27;;
34960;SDS011;30789;52.030;7.110;2024-03-08T06:47:25;39.63;;;23.77;;
34960;SDS011;30789;52.030;7.110;2024-03-08T06:49:56;41.30;;;24.00;;
34960;SDS011;30789;52.030;7.110;2024-03-08T06:52:36;45.40;;;24.00;;
34960;SDS011;30789;52.030;7.110;2024-03-08T06:55:04;43.53;;;23.45;;
34960;SDS011;30789;52.030;7.110;2024-03-08T06:57:37;43.17;;;25.10;;
34960;SDS011;30789;52.030;7.110;2024-03-08T07:00:04;46.67;;;25.63;;
34960;SDS011;30789;52.030;7.110;2024-03-08T07:02:36;40.08;;;22.75;;
34960;SDS011;30789;52.030;7.110;2024-03-08T07:05:12;41.78;;;23.40;;
34960;SDS011;30789;52.030;7.110;2024-03-08T07:07:40;40.05;;;24.45;;
34960;SDS011;30789;52.030;7.110;2024-03-08T07:10:16;40.67;;;23.92;;
34960;SDS011;30789;52.030;7.110;2024-03-08T07:12:45;41.63;;;23.25;;
34960;SDS011;30789;52.030;7.110;2024-03-08T07:15:14;42.97;;;24.77;;
34960;SDS011;30789;52.030;7.110;2024-03-08T07:17:46;44.92;;;24.35;;
34960;SDS011;30789;52.030;7.110;2024-03-08T07:20:13;41.30;;;23.15;;
34960;SDS011;30789;52.030;7.110;2024-03-08T07:22:49;40.95;;;24.95;;
34960;SDS011;30789;52.030;7.110;2024-03-08T07:25:18;41.63;;;23.63;;
34960;SDS011;30789;52.030;7.110;2024-03-08T07:27:54;39.20;;;23.75;;
34960;SDS011;30789;52.030;7.110;2024-03-08T07:30:37;41.10;;;24.48;;
34960;SDS011;30789;52.030;7.110;2024-03-08T07:33:38;44.40;;;23.65;;
34960;SDS011;30789;52.030;7.110;2024-03-08T07:36:48;43.08;;;23.77;;
34960;SDS011;30789;52.030;7.110;2024-03-08T07:39:19;42.40;;;24.08;;
34960;SDS011;30789;52.030;7.110;2024-03-08T07:41:48;38.33;;;23.55;;
34960;SDS011;30789;52.030;7.110;2024-03-08T07:44:17;40.50;;;23.70;;
34960;SDS011;30789;52.030;7.110;2024-03-08T07:46:50;40.13;;;23.83;;
34960;SDS011;30789;52.030;7.110;2024-03-08T07:49:23;39.92;;;23.80;;
34960;SDS011;30789;52.030;7.110;2024-03-08T07:51:57;41.42;;;23.95;;
34960;SDS011;30789;52.030;7.110;2024-03-08T07:55:06;37.13;;;22.35;;
34960;SDS011;30789;52.030;7.110;2024-03-08T07:57:45;39.30;;;23.65;;
34960;SDS011;30789;52.030;7.110;2024-03-08T08:00:14;41.90;;;22.88;;
34960;SDS011;30789;52.030;7.110;2024-03-08T08:02:43;37.08;;;22.75;;
34960;SDS011;30789;52.030;7.110;2024-03-08T08:05:10;34.80;;;22.83;;
34960;SDS011;30789;52.030;7.110;2024-03-08T08:07:37;42.13;;;24.48;;
34960;SDS011;30789;52.030;7.110;2024-03-08T08:10:07;37.85;;;23.17;;
34960;SDS011;30789;52.030;7.110;2024-03-08T08:12:40;36.88;;;22.70;;
34960;SDS011;30789;52.030;7.110;2024-03-08T08:15:07;42.90;;;23.63;;
34960;SDS011;30789;52.030;7.110;2024-03-08T08:17:34;42.35;;;23.67;;
34960;SDS011;30789;52.030;7.110;2024-03-08T08:20:00;37.30;;;21.42;;
34960;SDS011;30789;52.030;7.110;2024-03-08T08:22:30;42.20;;;24.15;;
34960;SDS011;30789;52.030;7.110;2024-03-08T08:24:57;34.63;;;22.40;;
34960;SDS011;30789;52.030;7.110;2024-03-08T08:27:28;36.85;;;22.80;;
34960;SDS011;30789;52.030;7.110;2024-03-08T08:58:22;36.65;;;22.92;;
34960;SDS011;30789;52.030;7.110;2024-03-08T09:00:53;44.17;;;23.48;;
34960;SDS011;30789;52.030;7.110;2024-03-08T10:01:03;37.25;;;21.98;;
34960;SDS011;30789;52.030;7.110;2024-03-08T10:03:31;35.33;;;22.23;;
34960;SDS011;30789;52.030;7.110;2024-03-08T10:05:58;35.78;;;21.20;;
34960;SDS011;30789;52.030;7.110;2024-03-08T10:08:26;31.75;;;20.33;;
34960;SDS011;30789;52.030;7.110;2024-03-08T10:10:54;32.90;;;20.40;;
34960;SDS011;30789;52.030;7.110;2024-03-08T10:13:23;32.13;;;21.23;;
34960;SDS011;30789;52.030;7.110;2024-03-08T10:15:53;29.67;;;20.08;;
34960;SDS011;30789;52.030;7.110;2024-03-08T10:18:22;33.38;;;20.40;;
34960;SDS011;30789;52.030;7.110;2024-03-08T10:21:01;30.63;;;20.35;;
34960;SDS011;30789;52.030;7.110;2024-03-08T10:23:30;30.25;;;18.65;;
34960;SDS011;30789;52.030;7.110;2024-03-08T10:25:57;33.33;;;19.20;;
34960;SDS011;30789;52.030;7.110;2024-03-08T10:28:41;29.73;;;19.00;;
34960;SDS011;30789;52.030;7.110;2024-03-08T10:31:30;29.17;;;18.63;;
34960;SDS011;30789;52.030;7.110;2024-03-08T10:50:39;27.52;;;18.17;;
34960;SDS011;30789;52.030;7.110;2024-03-08T10:53:23;29.67;;;19.48;;
34960;SDS011;30789;52.030;7.110;2024-03-08T10:56:02;26.80;;;18.40;;
34960;SDS011;30789;52.030;7.110;2024-03-08T10:58:32;29.17;;;18.85;;
34960;SDS011;30789;52.030;7.110;2024-03-08T11:01:19;28.30;;;18.45;;
34960;SDS011;30789;52.030;7.110;2024-03-08T11:07:20;26.95;;;18.42;;
34960;SDS011;30789;52.030;7.110;2024-03-08T11:09:48;28.42;;;18.83;;
34960;SDS011;30789;52.030;7.110;2024-03-08T11:15:40;27.70;;;18.40;;
34960;SDS011;30789;52.030;7.110;2024-03-08T11:22:41;24.67;;;16.52;;
34960;SDS011;30789;52.030;7.110;2024-03-08T11:25:51;23.95;;;16.58;;
34960;SDS011;30789;52.030;7.110;2024-03-08T11:28:23;25.48;;;16.17;;
34960;SDS011;30789;52.030;7.110;2024-03-08T12:26:25;20.83;;;14.93;;
34960;SDS011;30789;52.030;7.110;2024-03-08T12:39:19;18.83;;;12.90;;
34960;SDS011;30789;52.030;7.110;2024-03-08T15:43:21;21.23;;;14.63;;
34960;SDS011;30789;52.030;7.110;2024-03-08T15:45:51;22.80;;;15.13;;
34960;SDS011;30789;52.030;7.110;2024-03-08T15:48:19;21.25;;;14.23;;
34960;SDS011;30789;52.030;7.110;2024-03-08T15:50:52;23.15;;;14.25;;
34960;SDS011;30789;52.030;7.110;2024-03-08T15:53:22;20.40;;;14.27;;
34960;SDS011;30789;52.030;7.110;2024-03-08T15:55:49;27.90;;;15.93;;
34960;SDS011;30789;52.030;7.110;2024-03-08T15:58:18;23.88;;;15.02;;
34960;SDS011;30789;52.030;7.110;2024-03-08T16:00:48;23.83;;;15.85;;
34960;SDS011;30789;52.030;7.110;2024-03-08T16:03:21;23.23;;;15.35;;
34960;SDS011;30789;52.030;7.110;2024-03-08T16:05:56;23.35;;;15.63;;
34960;SDS011;30789;52.030;7.110;2024-03-08T16:08:25;23.60;;;15.20;;
34960;SDS011;30789;52.030;7.110;2024-03-08T16:10:52;26.10;;;16.08;;
34960;SDS011;30789;52.030;7.110;2024-03-08T16:16:01;22.00;;;14.45;;
34960;SDS011;30789;52.030;7.110;2024-03-08T16:18:28;24.23;;;14.98;;
34960;SDS011;30789;52.030;7.110;2024-03-08T16:20:56;24.60;;;15.70;;
34960;SDS011;30789;52.030;7.110;2024-03-08T16:23:23;27.45;;;15.95;;
34960;SDS011;30789;52.030;7.110;2024-03-08T16:25:52;22.73;;;14.63;;
34960;SDS011;30789;52.030;7.110;2024-03-08T16:28:22;23.77;;;15.20;;
34960;SDS011;30789;52.030;7.110;2024-03-08T16:30:55;23.17;;;15.25;;
34960;SDS011;30789;52.030;7.110;2024-03-08T16:33:25;23.23;;;14.70;;
34960;SDS011;30789;52.030;7.110;2024-03-08T16:35:56;23.08;;;14.70;;
34960;SDS011;30789;52.030;7.110;2024-03-08T16:38:26;22.75;;;15.40;;
34960;SDS011;30789;52.030;7.110;2024-03-08T16:40:57;24.60;;;16.10;;
34960;SDS011;30789;52.030;7.110;2024-03-08T16:43:25;24.83;;;15.23;;
34960;SDS011;30789;52.030;7.110;2024-03-08T16:45:55;24.67;;;15.10;;
34960;SDS011;30789;52.030;7.110;2024-03-08T16:48:27;26.00;;;15.75;;
34960;SDS011;30789;52.030;7.110;2024-03-08T16:50:56;27.38;;;16.67;;
34960;SDS011;30789;52.030;7.110;2024-03-08T16:53:26;27.17;;;16.15;;
34960;SDS011;30789;52.030;7.110;2024-03-08T16:56:00;27.80;;;15.68;;
34960;SDS011;30789;52.030;7.110;2024-03-08T16:58:33;25.23;;;16.67;;
34960;SDS011;30789;52.030;7.110;2024-03-08T17:01:01;26.63;;;16.50;;
34960;SDS011;30789;52.030;7.110;2024-03-08T17:03:34;26.92;;;16.70;;
34960;SDS011;30789;52.030;7.110;2024-03-08T17:06:01;31.15;;;18.40;;
34960;SDS011;30789;52.030;7.110;2024-03-08T17:08:30;25.63;;;16.35;;
34960;SDS011;30789;52.030;7.110;2024-03-08T17:10:57;31.67;;;17.30;;
34960;SDS011;30789;52.030;7.110;2024-03-08T17:13:34;25.35;;;15.85;;
34960;SDS011;30789;52.030;7.110;2024-03-08T17:16:04;26.35;;;15.75;;
34960;SDS011;30789;52.030;7.110;2024-03-08T17:18:35;25.02;;;15.13;;
34960;SDS011;30789;52.030;7.110;2024-03-08T17:21:05;24.42;;;15.05;;
34960;SDS011;30789;52.030;7.110;2024-03-08T17:23:38;22.55;;;14.27;;
34960;SDS011;30789;52.030;7.110;2024-03-08T17:26:07;25.38;;;16.02;;
34960;SDS011;30789;52.030;7.110;2024-03-08T17:28:34;24.85;;;15.23;;
34960;SDS011;30789;52.030;7.110;2024-03-08T17:31:03;26.17;;;16.60;;
34960;SDS011;30789;52.030;7.110;2024-03-08T17:33:32;26.55;;;16.33;;
34960;SDS011;30789;52.030;7.110;2024-03-08T17:36:04;26.95;;;16.13;;
34960;SDS011;30789;52.030;7.110;2024-03-08T17:38:32;24.58;;;15.57;;
34960;SDS011;30789;52.030;7.110;2024-03-08T17:41:10;24.75;;;15.77;;
34960;SDS011;30789;52.030;7.110;2024-03-08T17:43:48;27.53;;;17.07;;
34960;SDS011;30789;52.030;7.110;2024-03-08T17:46:27;29.35;;;16.27;;
34960;SDS011;30789;52.030;7.110;2024-03-08T17:55:46;30.42;;;15.93;;
34960;SDS011;30789;52.030;7.110;2024-03-08T17:58:26;30.75;;;17.25;;
34960;SDS011;30789;52.030;7.110;2024-03-08T18:00:57;26.23;;;15.60;;
34960;SDS011;30789;52.030;7.110;2024-03-08T18:03:30;22.77;;;15.20;;
34960;SDS011;30789;52.030;7.110;2024-03-08T18:06:03;27.85;;;17.63;;
34960;SDS011;30789;52.030;7.110;2024-03-08T18:08:37;27.67;;;17.65;;
34960;SDS011;30789;52.030;7.110;2024-03-08T18:11:11;28.13;;;17.30;;
34960;SDS011;30789;52.030;7.110;2024-03-08T18:13:40;27.58;;;17.38;;
34960;SDS011;30789;52.030;7.110;2024-03-08T18:16:08;30.92;;;18.50;;
34960;SDS011;30789;52.030;7.110;2024-03-08T18:18:37;27.67;;;17.45;;
34960;SDS011;30789;52.030;7.110;2024-03-08T18:21:04;28.80;;;18.85;;
34960;SDS011;30789;52.030;7.110;2024-03-08T18:23:43;26.95;;;17.73;;
34960;SDS011;30789;52.030;7.110;2024-03-08T18:26:15;31.92;;;17.98;;
34960;SDS011;30789;52.030;7.110;2024-03-08T18:28:43;28.70;;;18.23;;
34960;SDS011;30789;52.030;7.110;2024-03-08T18:31:13;29.83;;;18.40;;
34960;SDS011;30789;52.030;7.110;2024-03-08T18:33:43;32.47;;;18.58;;
34960;SDS011;30789;52.030;7.110;2024-03-08T18:36:41;28.75;;;17.98;;
34960;SDS011;30789;52.030;7.110;2024-03-08T18:39:11;30.23;;;19.30;;
34960;SDS011;30789;52.030;7.110;2024-03-08T18:41:44;28.60;;;18.20;;
34960;SDS011;30789;52.030;7.110;2024-03-08T18:44:14;30.20;;;18.83;;
34960;SDS011;30789;52.030;7.110;2024-03-08T18:46:40;30.17;;;18.90;;
34960;SDS011;30789;52.030;7.110;2024-03-08T18:49:08;31.98;;;19.38;;
34960;SDS011;30789;52.030;7.110;2024-03-08T18:51:39;27.25;;;17.63;;
34960;SDS011;30789;52.030;7.110;2024-03-08T18:54:08;32.08;;;19.00;;
34960;SDS011;30789;52.030;7.110;2024-03-08T18:59:22;35.08;;;20.73;;
34960;SDS011;30789;52.030;7.110;2024-03-08T19:01:51;36.78;;;21.45;;
34960;SDS011;30789;52.030;7.110;2024-03-08T19:04:20;30.75;;;20.08;;
34960;SDS011;30789;52.030;7.110;2024-03-08T19:06:48;29.48;;;19.08;;
34960;SDS011;30789;52.030;7.110;2024-03-08T19:09:18;35.42;;;19.83;;
34960;SDS011;30789;52.030;7.110;2024-03-08T19:11:47;31.90;;;20.48;;
34960;SDS011;30789;52.030;7.110;2024-03-08T19:14:17;32.25;;;20.25;;
34960;SDS011;30789;52.030;7.110;2024-03-08T19:16:44;34.65;;;21.52;;
34960;SDS011;30789;52.030;7.110;2024-03-08T19:19:15;30.98;;;19.23;;
34960;SDS011;30789;52.030;7.110;2024-03-08T19:21:52;32.70;;;19.63;;
34960;SDS011;30789;52.030;7.110;2024-03-08T19:24:20;32.97;;;19.65;;
34960;SDS011;30789;52.030;7.110;2024-03-08T19:26:49;32.78;;;20.65;;
34960;SDS011;30789;52.030;7.110;2024-03-08T19:29:24;34.20;;;20.00;;
34960;SDS011;30789;52.030;7.110;2024-03-08T19:31:52;32.45;;;20.90;;
34960;SDS011;30789;52.030;7.110;2024-03-08T19:34:18;33.75;;;20.10;;
34960;SDS011;30789;52.030;7.110;2024-03-08T19:36:49;32.65;;;20.73;;
34960;SDS011;30789;52.030;7.110;2024-03-08T19:39:20;35.85;;;21.20;;
34960;SDS011;30789;52.030;7.110;2024-03-08T19:41:47;32.40;;;19.92;;
34960;SDS011;30789;52.030;7.110;2024-03-08T19:44:16;34.58;;;20.40;;
34960;SDS011;30789;52.030;7.110;2024-03-08T19:46:55;32.90;;;19.45;;
34960;SDS011;30789;52.030;7.110;2024-03-08T19:49:24;33.53;;;21.23;;
34960;SDS011;30789;52.030;7.110;2024-03-08T19:51:56;35.90;;;20.38;;
34960;SDS011;30789;52.030;7.110;2024-03-08T19:54:24;37.65;;;21.60;;
34960;SDS011;30789;52.030;7.110;2024-03-08T19:56:51;33.45;;;20.85;;
34960;SDS011;30789;52.030;7.110;2024-03-08T19:59:19;35.83;;;22.02;;
34960;SDS011;30789;52.030;7.110;2024-03-08T20:01:48;37.20;;;21.48;;
34960;SDS011;30789;52.030;7.110;2024-03-08T20:04:16;38.95;;;22.63;;
34960;SDS011;30789;52.030;7.110;2024-03-08T20:06:46;37.50;;;22.17;;
34960;SDS011;30789;52.030;7.110;2024-03-08T20:09:16;38.33;;;21.95;;
34960;SDS011;30789;52.030;7.110;2024-03-08T20:11:45;38.17;;;22.40;;
34960;SDS011;30789;52.030;7.110;2024-03-08T20:14:12;36.42;;;22.05;;
34960;SDS011;30789;52.030;7.110;2024-03-08T20:16:40;37.20;;;21.48;;
34960;SDS011;30789;52.030;7.110;2024-03-08T20:19:09;35.78;;;22.75;;
34960;SDS011;30789;52.030;7.110;2024-03-08T20:21:37;39.33;;;23.38;;
34960;SDS011;30789;52.030;7.110;2024-03-08T20:24:06;35.30;;;22.60;;
34960;SDS011;30789;52.030;7.110;2024-03-08T20:26:36;37.45;;;23.45;;
34960;SDS011;30789;52.030;7.110;2024-03-08T20:29:06;41.53;;;22.85;;
34960;SDS011;30789;52.030;7.110;2024-03-08T20:31:36;38.88;;;23.83;;
34960;SDS011;30789;52.030;7.110;2024-03-08T20:34:03;41.47;;;22.98;;
34960;SDS011;30789;52.030;7.110;2024-03-08T20:39:10;39.58;;;21.70;;
34960;SDS011;30789;52.030;7.110;2024-03-08T20:41:40;38.03;;;23.42;;
34960;SDS011;30789;52.030;7.110;2024-03-08T20:44:09;39.25;;;23.00;;
34960;SDS011;30789;52.030;7.110;2024-03-08T20:46:40;37.92;;;23.13;;
34960;SDS011;30789;52.030;7.110;2024-03-08T20:49:07;38.75;;;23.50;;
34960;SDS011;30789;52.030;7.110;2024-03-08T20:51:37;42.03;;;23.15;;